Irish Sea — WDB5555 — position and weather

sailwx.info

Track history (hours):
 
Tides and Currents Weather Stations Pressure Air Temp Water Temp Dewpoint Dewpoint Depression Visibility Wind Speed Wind Dir Waves Ship Positions

Irish Sea

More information available from US FCC via Universal Licensing System and Coast Guard Vessel Documentation Center.

Last reported at 2014-Sep-18 11:31 UTC. Time now 2014-Sep-20 01:55 UTC.
Position N 39°25' W 074°11'.

Length 152 m; draft 6.8 m.

Type: Ship (hazmat cat B). MMSI: 366910920.

Date/timePositionNaut miles runAvg speedWind from/ knotsBaromVisibWave heightAir tempDewpointWater temp
2014-Sep-18 11:31N 39°25' W 074°11'8 8.8
2014-Sep-18 10:33N 39°33' W 074°06'9 8.8
2014-Sep-18 09:33N 39°41' W 074°01'9 8.7
2014-Sep-18 08:33N 39°49' W 073°57'51 2.2
2014-Sep-17 09:15N 40°39' W 074°07'0 0.0
2014-Sep-17 08:30N 40°39' W 074°07'13 0.6
2014-Sep-16 09:24N 40°48' W 073°54'11 2.2
2014-Sep-16 04:33N 40°40' W 074°03'0 0.1
2014-Sep-16 03:27N 40°39' W 074°03'0 0.0
2014-Sep-16 02:33N 40°39' W 074°03'0 0.1
2014-Sep-16 01:33N 40°40' W 074°03'6 5.7
2014-Sep-16 00:26N 40°33' W 074°02'6 6.4
2014-Sep-15 23:29N 40°29' W 073°55'8 6.9
2014-Sep-15 22:16N 40°21' W 073°54'31 7.5
2014-Sep-15 18:11N 39°51' W 073°57'5 7.5
2014-Sep-15 17:33N 39°46' W 073°58'7 7.4
2014-Sep-15 16:33N 39°39' W 074°02'8 7.5
2014-Sep-15 15:33N 39°32' W 074°06'  
2014-Sep-11 15:32N 39°29' W 074°08'7 7.1
2014-Sep-11 14:33N 39°36' W 074°04'7 7.2
2014-Sep-11 13:33N 39°42' W 073°60'7 7.2
2014-Sep-11 12:33N 39°49' W 073°58'9 7.3
2014-Sep-11 11:22N 39°57' W 073°56'7 7.3
2014-Sep-11 10:24N 40°05' W 073°56'6 7.4
2014-Sep-11 09:33N 40°11' W 073°55'8 7.5
2014-Sep-11 08:33N 40°18' W 073°55'8 7.5
2014-Sep-11 07:30N 40°26' W 073°54'11 8.1
2014-Sep-11 06:11N 40°35' W 074°02'5 7.9
2014-Sep-11 05:33N 40°39' W 074°05'5 5.1
2014-Sep-11 04:29N 40°37' W 074°12'2 0.1
2014-Sep-10 16:04N 40°36' W 074°12'3 5.7
2014-Sep-10 15:33N 40°39' W 074°11'1 1.0
2014-Sep-10 14:21N 40°38' W 074°10'0 0.0
2014-Sep-10 13:24N 40°38' W 074°10'0 0.0
2014-Sep-10 11:18N 40°38' W 074°10'0 0.1
2014-Sep-10 10:33N 40°39' W 074°10'3 1.1
2014-Sep-10 07:33N 40°36' W 074°12'0 0.4
2014-Sep-10 06:32N 40°35' W 074°12'4 3.5
2014-Sep-10 05:32N 40°32' W 074°15'0 0.0
2014-Sep-10 03:20N 40°32' W 074°15'0 0.0
2014-Sep-10 02:05N 40°32' W 074°15'0 0.0
2014-Sep-10 01:11N 40°32' W 074°15'0 0.0
2014-Sep-09 15:10N 40°32' W 074°15'3 1.1
2014-Sep-09 12:29N 40°30' W 074°15'0 0.1
2014-Sep-09 11:33N 40°30' W 074°15'0 0.0
2014-Sep-09 10:33N 40°30' W 074°15'0 0.0
2014-Sep-09 08:29N 40°30' W 074°15'0 0.1
2014-Sep-09 07:28N 40°29' W 074°15'0 0.0
2014-Sep-09 06:29N 40°29' W 074°15'1 0.6
2014-Sep-09 05:20N 40°29' W 074°15'6 7.8
2014-Sep-09 04:33N 40°29' W 074°06'15 6.6
2014-Sep-09 02:12N 40°17' W 073°55'27 9.0
2014-Sep-08 23:10N 39°49' W 073°57'5 8.7
2014-Sep-08 22:33N 39°44' W 073°59'8 8.4
2014-Sep-08 21:33N 39°37' W 074°04'  
Track history (hours):
 
Tides and Currents Weather Stations Pressure Air Temp Water Temp Dewpoint Dewpoint Depression Visibility Wind Speed Wind Dir Waves Ship Positions

Irish Sea

More information available from US FCC via Universal Licensing System and Coast Guard Vessel Documentation Center.

Last reported at 2014-Sep-18 11:31 UTC. Time now 2014-Sep-20 01:55 UTC.
Position N 39°25' W 074°11'.

Length 152 m; draft 6.8 m.

Type: Ship (hazmat cat B). MMSI: 366910920.

Date/timePositionNaut miles runAvg speedWind from/ knotsBaromVisibWave heightAir tempDewpointWater temp
2014-Sep-18 11:31N 39°25' W 074°11'8 8.8
2014-Sep-18 10:33N 39°33' W 074°06'9 8.8
2014-Sep-18 09:33N 39°41' W 074°01'9 8.7
2014-Sep-18 08:33N 39°49' W 073°57'51 2.2
2014-Sep-17 09:15N 40°39' W 074°07'0 0.0
2014-Sep-17 08:30N 40°39' W 074°07'13 0.6
2014-Sep-16 09:24N 40°48' W 073°54'11 2.2
2014-Sep-16 04:33N 40°40' W 074°03'0 0.1
2014-Sep-16 03:27N 40°39' W 074°03'0 0.0
2014-Sep-16 02:33N 40°39' W 074°03'0 0.1
2014-Sep-16 01:33N 40°40' W 074°03'6 5.7
2014-Sep-16 00:26N 40°33' W 074°02'6 6.4
2014-Sep-15 23:29N 40°29' W 073°55'8 6.9
2014-Sep-15 22:16N 40°21' W 073°54'31 7.5
2014-Sep-15 18:11N 39°51' W 073°57'5 7.5
2014-Sep-15 17:33N 39°46' W 073°58'7 7.4
2014-Sep-15 16:33N 39°39' W 074°02'8 7.5
2014-Sep-15 15:33N 39°32' W 074°06'  
2014-Sep-11 15:32N 39°29' W 074°08'7 7.1
2014-Sep-11 14:33N 39°36' W 074°04'7 7.2
2014-Sep-11 13:33N 39°42' W 073°60'7 7.2
2014-Sep-11 12:33N 39°49' W 073°58'9 7.3
2014-Sep-11 11:22N 39°57' W 073°56'7 7.3
2014-Sep-11 10:24N 40°05' W 073°56'6 7.4
2014-Sep-11 09:33N 40°11' W 073°55'8 7.5
2014-Sep-11 08:33N 40°18' W 073°55'8 7.5
2014-Sep-11 07:30N 40°26' W 073°54'11 8.1
2014-Sep-11 06:11N 40°35' W 074°02'5 7.9
2014-Sep-11 05:33N 40°39' W 074°05'5 5.1
2014-Sep-11 04:29N 40°37' W 074°12'2 0.1
2014-Sep-10 16:04N 40°36' W 074°12'3 5.7
2014-Sep-10 15:33N 40°39' W 074°11'1 1.0
2014-Sep-10 14:21N 40°38' W 074°10'0 0.0
2014-Sep-10 13:24N 40°38' W 074°10'0 0.0
2014-Sep-10 11:18N 40°38' W 074°10'0 0.1
2014-Sep-10 10:33N 40°39' W 074°10'3 1.1
2014-Sep-10 07:33N 40°36' W 074°12'0 0.4
2014-Sep-10 06:32N 40°35' W 074°12'4 3.5
2014-Sep-10 05:32N 40°32' W 074°15'0 0.0
2014-Sep-10 03:20N 40°32' W 074°15'0 0.0
2014-Sep-10 02:05N 40°32' W 074°15'0 0.0
2014-Sep-10 01:11N 40°32' W 074°15'0 0.0
2014-Sep-09 15:10N 40°32' W 074°15'3 1.1
2014-Sep-09 12:29N 40°30' W 074°15'0 0.1
2014-Sep-09 11:33N 40°30' W 074°15'0 0.0
2014-Sep-09 10:33N 40°30' W 074°15'0 0.0
2014-Sep-09 08:29N 40°30' W 074°15'0 0.1
2014-Sep-09 07:28N 40°29' W 074°15'0 0.0
2014-Sep-09 06:29N 40°29' W 074°15'1 0.6
2014-Sep-09 05:20N 40°29' W 074°15'6 7.8
2014-Sep-09 04:33N 40°29' W 074°06'15 6.6
2014-Sep-09 02:12N 40°17' W 073°55'27 9.0
2014-Sep-08 23:10N 39°49' W 073°57'5 8.7
2014-Sep-08 22:33N 39°44' W 073°59'8 8.4
2014-Sep-08 21:33N 39°37' W 074°04'  

Dump ship's entire track history